Time;durP1;ratioP1;P1;durP2;ratioP2;P2;SDS_P1;SDS_P2;PMS_P1;PMS_P2;Temp;Humidity;BMP_temperature;BMP_pressure;BME280_temperature;BME280_humidity;BME280_pressure;Samples;Min_cycle;Max_cycle;Signal;HPM_P1;HPM_P2
2022/02/14 00:00:35;;;;;;;36.22;14.88;;;;;;;5.78;65.45;100950.06;5134170;27;20111;-77
2022/02/14 00:03:00;;;;;;;35.90;14.70;;;;;;;5.89;64.54;100948.50;5128399;27;20051;-77
2022/02/14 00:05:26;;;;;;;35.10;15.68;;;;;;;5.76;64.65;100949.31;5125098;28;20261;-77
2022/02/14 00:07:51;;;;;;;46.28;17.23;;;;;;;5.76;65.21;100956.38;5129395;27;20334;-77
2022/02/14 00:10:16;;;;;;;39.13;15.63;;;;;;;5.48;65.48;100956.50;5133424;27;20058;-77
2022/02/14 00:12:42;;;;;;;33.13;18.42;;;;;;;5.40;65.47;100954.38;5133599;27;20206;-78
2022/02/14 00:15:11;;;;;;;39.03;15.77;;;;;;;5.26;65.45;100955.25;5129703;27;20140;-78
2022/02/14 00:17:38;;;;;;;30.60;14.30;;;;;;;5.12;65.69;100957.88;5133541;27;20041;-77
2022/02/14 00:20:04;;;;;;;77.53;21.63;;;;;;;5.31;64.94;100955.81;5134525;27;20075;-77
2022/02/14 00:22:30;;;;;;;28.17;15.30;;;;;;;5.33;64.51;100947.81;5128573;27;20031;-77
2022/02/14 00:24:55;;;;;;;40.57;21.67;;;;;;;5.13;65.19;100949.91;5130984;27;20225;-77
2022/02/14 00:27:21;;;;;;;42.73;19.87;;;;;;;4.85;65.68;100928.97;5129362;27;20036;-77
2022/02/14 00:29:47;;;;;;;46.97;20.87;;;;;;;4.85;65.56;100947.34;5129158;27;20320;-77
2022/02/14 00:32:13;;;;;;;52.43;25.33;;;;;;;5.06;64.39;100951.25;5139081;27;20035;-78
2022/02/14 00:34:39;;;;;;;63.63;30.85;;;;;;;4.82;64.59;100952.78;5127772;27;20016;-77
2022/02/14 00:37:05;;;;;;;79.90;34.90;;;;;;;4.27;66.23;100950.94;5126826;27;20099;-78
2022/02/14 00:39:31;;;;;;;83.93;37.60;;;;;;;3.64;67.83;100945.91;5129993;27;20023;-77
2022/02/14 00:41:57;;;;;;;72.87;32.93;;;;;;;3.86;67.93;100945.50;5126074;27;20043;-77
2022/02/14 00:44:22;;;;;;;133.20;47.67;;;;;;;4.34;66.22;100933.06;5130769;27;20028;-77
2022/02/14 00:46:48;;;;;;;68.07;31.57;;;;;;;4.40;65.40;100916.94;5127525;27;20031;-77
2022/02/14 00:49:13;;;;;;;75.27;32.77;;;;;;;4.59;65.09;100938.47;5128382;27;20027;-77
2022/02/14 00:51:39;;;;;;;83.07;35.43;;;;;;;4.45;64.98;100920.13;5125934;27;20031;-77
2022/02/14 00:54:04;;;;;;;89.40;39.37;;;;;;;4.15;65.36;100905.31;5128011;27;20034;-77
2022/02/14 00:56:30;;;;;;;93.67;40.50;;;;;;;4.44;65.22;100929.78;5132301;27;20099;-77
2022/02/14 00:58:55;;;;;;;98.20;43.63;;;;;;;4.58;63.70;100902.69;5125807;27;20087;-78
2022/02/14 01:01:21;;;;;;;90.43;39.83;;;;;;;4.66;64.05;100925.81;5127397;27;20099;-78
2022/02/14 01:03:47;;;;;;;85.63;38.50;;;;;;;4.48;64.30;100923.41;5129099;27;20045;-78
2022/02/14 01:06:13;;;;;;;99.03;42.83;;;;;;;4.37;65.05;100922.38;5126013;27;20267;-78
2022/02/14 01:08:39;;;;;;;87.50;41.40;;;;;;;4.63;63.55;100928.63;5133225;27;20049;-78
2022/02/14 01:11:05;;;;;;;98.07;42.57;;;;;;;4.65;63.17;100922.38;5124798;27;20039;-77
2022/02/14 01:13:31;;;;;;;98.40;46.27;;;;;;;4.67;62.41;100917.00;5131617;27;20056;-77
2022/02/14 01:15:57;;;;;;;105.10;47.97;;;;;;;4.54;62.91;100911.69;5131043;27;20027;-77
2022/02/14 01:18:22;;;;;;;96.53;45.47;;;;;;;4.38;63.07;100897.84;5125291;27;20091;-77
2022/02/14 01:20:47;;;;;;;93.33;43.63;;;;;;;4.34;63.27;100893.72;5125415;27;20044;-77
2022/02/14 01:23:13;;;;;;;101.57;45.93;;;;;;;4.18;64.10;100903.47;5123884;27;20039;-77
2022/02/14 01:25:38;;;;;;;107.20;46.77;;;;;;;4.20;63.19;100876.22;5128370;27;20110;-77
2022/02/14 01:28:04;;;;;;;110.73;48.10;;;;;;;4.34;63.29;100904.22;5133707;27;20044;-77
2022/02/14 01:30:29;;;;;;;125.97;52.33;;;;;;;4.29;63.41;100888.75;5127864;27;20039;-80
2022/02/14 01:32:55;;;;;;;115.27;49.10;;;;;;;4.14;63.77;100898.38;5126899;27;20263;-80
2022/02/14 01:35:21;;;;;;;93.40;44.13;;;;;;;3.94;64.88;100895.25;5127499;27;20043;-78
2022/02/14 01:37:46;;;;;;;97.00;44.07;;;;;;;4.09;63.70;100891.72;5126397;27;20226;-79
2022/02/14 01:40:13;;;;;;;91.17;40.40;;;;;;;3.91;64.41;100888.44;5132045;27;20355;-77
2022/02/14 01:42:40;;;;;;;99.10;42.57;;;;;;;3.72;65.10;100886.06;5130759;27;20259;-78
2022/02/14 01:45:08;;;;;;;92.57;41.73;;;;;;;4.10;63.36;100890.78;5126807;27;20055;-77
2022/02/14 01:47:33;;;;;;;90.67;41.07;;;;;;;4.03;63.58;100885.06;5131263;27;20043;-80
2022/02/14 01:49:59;;;;;;;82.10;38.10;;;;;;;3.60;64.70;100886.78;5127029;27;20043;-78
2022/02/14 01:52:28;;;;;;;87.50;40.30;;;;;;;3.44;65.69;100872.91;5129721;27;20072;-78
2022/02/14 01:54:54;;;;;;;86.83;37.73;;;;;;;3.44;65.94;100872.91;5144187;27;20068;-78
2022/02/14 01:57:19;;;;;;;89.77;39.93;;;;;;;3.32;66.55;100863.13;5121444;28;20035;-79
2022/02/14 01:59:45;;;;;;;83.90;37.67;;;;;;;3.25;65.73;100822.53;5124321;27;20176;-79
2022/02/14 02:02:11;;;;;;;88.00;38.23;;;;;;;3.55;65.94;100867.03;5131353;27;20043;-76
2022/02/14 02:04:37;;;;;;;91.57;38.77;;;;;;;3.62;64.95;100873.59;5126850;27;20076;-77
2022/02/14 02:07:04;;;;;;;83.90;39.77;;;;;;;3.36;64.43;100833.22;5126605;27;20062;-79
2022/02/14 02:09:31;;;;;;;88.80;39.03;;;;;;;3.49;65.02;100849.91;5129171;27;20083;-79
2022/02/14 02:14:41;;;;;;;85.75;37.92;;;;;;;3.67;64.57;100864.53;5141631;27;20038;-79
2022/02/14 02:17:07;;;;;;;81.90;39.23;;;;;;;3.60;64.61;100865.00;5142912;27;20256;-79
2022/02/14 02:19:34;;;;;;;90.83;43.00;;;;;;;3.38;65.24;100866.25;5129613;27;20031;-81
2022/02/14 02:22:00;;;;;;;94.40;41.90;;;;;;;3.42;65.53;100856.44;5129240;27;20228;-78
2022/02/14 02:24:25;;;;;;;90.77;42.77;;;;;;;3.54;64.87;100858.34;5123543;27;20226;-80
2022/02/14 02:27:00;;;;;;;87.43;40.30;;;;;;;3.64;64.26;100862.09;5121212;28;20031;-79
2022/02/14 02:29:26;;;;;;;96.70;40.07;;;;;;;3.56;64.41;100840.75;5129963;27;20385;-79
2022/02/14 02:31:52;;;;;;;83.77;38.57;;;;;;;3.61;63.93;100862.28;5124772;27;20133;-79
2022/02/14 02:34:17;;;;;;;83.53;38.67;;;;;;;3.39;63.66;100825.19;5122016;28;20035;-79
2022/02/14 02:36:51;;;;;;;93.00;38.67;;;;;;;3.42;64.40;100859.06;5122993;27;20035;-80
2022/02/14 02:39:17;;;;;;;91.93;36.95;;;;;;;3.38;64.67;100861.00;5127239;27;20039;-80
2022/02/14 02:41:43;;;;;;;80.83;37.43;;;;;;;3.39;64.08;100843.53;5127524;27;20027;-78
2022/02/14 02:44:09;;;;;;;78.73;35.17;;;;;;;3.34;64.54;100856.88;5134091;27;20360;-79
2022/02/14 02:46:34;;;;;;;69.37;33.00;;;;;;;3.13;65.00;100832.78;5126855;27;20031;-79
2022/02/14 02:49:16;;;;;;;75.43;33.57;;;;;;;3.02;65.56;100857.84;5123124;27;20031;-80
2022/02/14 02:51:47;;;;;;;81.53;34.37;;;;;;;3.19;64.57;100852.53;5130301;27;20027;-79
2022/02/14 02:54:13;;;;;;;70.00;32.50;;;;;;;3.11;65.17;100862.56;5129585;27;20253;-79
2022/02/14 02:56:41;;;;;;;73.60;30.17;;;;;;;2.86;65.58;100852.63;5121726;28;20303;-79
2022/02/14 02:59:08;;;;;;;76.67;31.63;;;;;;;2.98;65.55;100856.34;5121268;28;20035;-80
2022/02/14 03:01:34;;;;;;;75.07;32.07;;;;;;;3.02;65.02;100863.09;5127837;27;20049;-79
2022/02/14 03:04:05;;;;;;;73.73;33.20;;;;;;;3.07;64.77;100863.66;5126579;27;20058;-79
2022/02/14 03:06:31;;;;;;;73.80;33.97;;;;;;;2.91;64.95;100855.84;5125393;27;20069;-79
2022/02/14 03:08:57;;;;;;;79.87;33.57;;;;;;;2.89;64.98;100840.22;5128361;27;20031;-79
2022/02/14 03:11:23;;;;;;;79.63;32.10;;;;;;;2.82;64.97;100854.59;5128317;27;20067;-78
2022/02/14 03:13:50;;;;;;;72.97;33.13;;;;;;;2.86;64.94;100850.88;5121504;28;20031;-78
2022/02/14 03:16:15;;;;;;;71.73;33.07;;;;;;;2.99;64.51;100850.19;5120502;28;20043;-78
2022/02/14 03:18:42;;;;;;;71.47;32.53;;;;;;;2.84;64.96;100850.09;5126984;28;20031;-79
2022/02/14 03:21:08;;;;;;;69.30;32.30;;;;;;;2.57;66.10;100835.94;5123460;28;20081;-79
2022/02/14 03:23:35;;;;;;;66.73;32.00;;;;;;;2.63;66.34;100848.69;5128064;28;20019;-79
2022/02/14 03:26:00;;;;;;;70.80;32.53;;;;;;;2.76;65.51;100844.47;5134884;27;20059;-79
2022/02/14 03:28:26;;;;;;;72.83;29.90;;;;;;;2.84;65.04;100825.72;5141835;27;20031;-79
2022/02/14 03:30:52;;;;;;;70.43;30.20;;;;;;;2.98;64.54;100849.34;5126319;28;20031;-78
2022/02/14 03:33:18;;;;;;;67.70;31.47;;;;;;;2.75;64.98;100848.00;5131022;27;20034;-79
2022/02/14 03:35:43;;;;;;;72.37;30.67;;;;;;;2.54;66.20;100846.56;5129753;27;20260;-79
2022/02/14 03:38:09;;;;;;;56.53;28.63;;;;;;;2.72;65.11;100839.50;5134528;27;20031;-79
2022/02/14 03:40:36;;;;;;;61.33;29.73;;;;;;;2.64;65.38;100826.84;5129380;27;20041;-79
2022/02/14 03:43:02;;;;;;;66.33;28.03;;;;;;;2.68;65.97;100840.59;5128164;27;20035;-79
2022/02/14 03:45:28;;;;;;;58.43;29.10;;;;;;;2.68;66.01;100843.19;5138519;27;20042;-79
2022/02/14 03:47:54;;;;;;;60.70;29.67;;;;;;;2.63;65.94;100834.78;5133196;27;20048;-79
2022/02/14 03:50:20;;;;;;;60.50;28.50;;;;;;;2.61;65.90;100815.72;5133817;27;20124;-78
2022/02/14 03:52:45;;;;;;;61.20;27.23;;;;;;;2.84;65.44;100844.88;5127780;27;20035;-79
2022/02/14 03:55:11;;;;;;;57.47;27.63;;;;;;;2.91;65.66;100847.16;5128203;27;20035;-79
2022/02/14 03:57:38;;;;;;;56.70;26.93;;;;;;;2.86;65.34;100848.25;5130197;27;20031;-79
2022/02/14 04:00:08;;;;;;;67.83;28.03;;;;;;;2.67;65.96;100825.81;5131562;27;20042;-79
2022/02/14 04:02:34;;;;;;;60.10;26.27;;;;;;;2.72;65.92;100823.78;5135845;27;20202;-79
2022/02/14 04:04:59;;;;;;;55.13;27.40;;;;;;;2.94;65.17;100839.13;5128983;27;20065;-80
2022/02/14 04:07:25;;;;;;;57.80;26.77;;;;;;;2.97;65.09;100828.50;5132663;27;20098;-80
2022/02/14 04:09:50;;;;;;;51.20;25.33;;;;;;;3.18;64.73;100835.13;5125898;27;20104;-79
2022/02/14 04:12:16;;;;;;;56.70;25.20;;;;;;;3.18;64.44;100835.13;5124832;28;20095;-79
2022/02/14 04:14:41;;;;;;;50.10;25.73;;;;;;;2.98;65.32;100822.31;5129147;27;20031;-79
2022/02/14 04:17:06;;;;;;;60.73;26.13;;;;;;;3.26;64.68;100829.47;5132337;27;20084;-79
2022/02/14 04:19:32;;;;;;;55.13;26.10;;;;;;;3.42;63.59;100833.72;5128905;27;20072;-79
2022/02/14 04:21:57;;;;;;;54.33;25.80;;;;;;;3.24;64.52;100829.56;5132465;27;20081;-80
2022/02/14 04:24:23;;;;;;;59.23;25.03;;;;;;;3.01;65.01;100817.75;5127966;27;20044;-78
2022/02/14 04:26:48;;;;;;;47.80;24.67;;;;;;;3.04;64.11;100816.75;5129421;27;20023;-80
2022/02/14 04:29:14;;;;;;;54.23;26.27;;;;;;;2.93;65.20;100822.59;5128822;27;20252;-79
2022/02/14 04:31:39;;;;;;;53.87;25.43;;;;;;;2.97;65.03;100805.78;5128106;27;20090;-79
2022/02/14 04:34:05;;;;;;;54.03;24.97;;;;;;;3.13;65.13;100824.09;5130351;27;20023;-79
2022/02/14 04:36:30;;;;;;;58.80;26.30;;;;;;;3.06;65.81;100822.72;5130656;27;20220;-79
2022/02/14 04:38:56;;;;;;;57.03;25.47;;;;;;;3.08;65.19;100800.78;5149612;27;20029;-80
2022/02/14 04:41:21;;;;;;;52.10;25.97;;;;;;;3.32;64.70;100829.09;5126254;27;20396;-80
2022/02/14 04:43:47;;;;;;;55.07;26.57;;;;;;;3.18;64.38;100822.91;5128160;27;20028;-79
2022/02/14 04:46:12;;;;;;;64.07;28.17;;;;;;;3.26;64.52;100826.84;5133650;27;20038;-79
2022/02/14 04:48:38;;;;;;;58.80;28.00;;;;;;;3.39;64.58;100828.66;5127869;27;20229;-79
2022/02/14 04:51:03;;;;;;;60.40;27.80;;;;;;;3.19;64.26;100801.03;5126161;27;20283;-79
2022/02/14 04:53:29;;;;;;;58.47;27.63;;;;;;;3.32;64.20;100819.47;5124888;27;20031;-80
2022/02/14 04:55:54;;;;;;;54.13;27.33;;;;;;;3.43;64.09;100830.16;5127500;27;20079;-80
2022/02/14 04:58:19;;;;;;;67.00;30.20;;;;;;;3.33;63.38;100799.38;5140686;27;20035;-78
2022/02/14 05:00:45;;;;;;;54.80;28.37;;;;;;;3.49;63.42;100828.97;5142238;27;20035;-79
2022/02/14 05:03:11;;;;;;;60.27;28.37;;;;;;;3.34;63.51;100829.84;5126905;27;20124;-79
2022/02/14 05:05:36;;;;;;;63.20;29.97;;;;;;;3.33;63.76;100830.78;5130239;27;20099;-80
2022/02/14 05:08:02;;;;;;;60.20;29.10;;;;;;;3.48;63.26;100835.13;5128831;27;20081;-79
2022/02/14 05:10:27;;;;;;;79.33;30.23;;;;;;;3.28;63.44;100809.28;5125904;27;20046;-79
2022/02/14 05:12:53;;;;;;;56.60;25.93;;;;;;;3.33;63.24;100807.22;5126111;27;20038;-79
2022/02/14 05:15:18;;;;;;;63.60;27.90;;;;;;;3.39;62.99;100840.91;5129325;27;20035;-80
2022/02/14 05:17:44;;;;;;;60.33;28.07;;;;;;;3.12;63.64;100809.28;5130108;27;20034;-78
2022/02/14 05:20:09;;;;;;;58.77;27.37;;;;;;;3.23;63.26;100820.00;5128632;27;20031;-79
2022/02/14 05:22:35;;;;;;;57.23;27.00;;;;;;;3.18;62.56;100843.84;5135232;27;20059;-79
2022/02/14 05:25:01;;;;;;;63.27;29.43;;;;;;;3.00;63.81;100847.47;5129167;27;20042;-79
2022/02/14 05:27:26;;;;;;;74.00;33.83;;;;;;;2.75;64.47;100821.00;5128778;27;20050;-79
2022/02/14 05:29:52;;;;;;;79.17;32.53;;;;;;;2.87;63.94;100818.53;5128341;27;20038;-79
2022/02/14 05:32:17;;;;;;;71.57;33.33;;;;;;;2.98;64.04;100844.09;5131155;27;20019;-78
2022/02/14 05:34:43;;;;;;;62.50;30.07;;;;;;;2.84;64.09;100829.19;5130756;27;20026;-79
2022/02/14 05:37:08;;;;;;;69.07;30.90;;;;;;;3.06;63.80;100847.13;5127438;27;20040;-79
2022/02/14 05:39:34;;;;;;;83.97;36.93;;;;;;;3.18;63.12;100853.47;5126104;27;20379;-78
2022/02/14 05:42:00;;;;;;;67.00;32.80;;;;;;;3.18;63.02;100854.31;5125901;27;20258;-79
2022/02/14 05:44:26;;;;;;;64.27;29.67;;;;;;;3.24;62.67;100834.78;5128257;27;20027;-79
2022/02/14 05:46:51;;;;;;;70.73;30.30;;;;;;;3.12;63.77;100845.94;5132499;27;20042;-79
2022/02/14 05:49:16;;;;;;;60.63;29.53;;;;;;;3.30;63.10;100855.38;5124193;27;20039;-79
2022/02/14 05:51:42;;;;;;;60.83;29.77;;;;;;;3.35;62.74;100855.94;5132575;27;20034;-76
2022/02/14 05:54:08;;;;;;;65.60;29.80;;;;;;;3.28;63.18;100827.59;5134606;27;20054;-78
2022/02/14 05:56:33;;;;;;;73.53;33.33;;;;;;;3.30;63.71;100854.53;5135168;27;20043;-79
2022/02/14 05:59:00;;;;;;;93.10;42.30;;;;;;;3.50;63.11;100862.06;5144178;27;20034;-79
2022/02/14 06:01:26;;;;;;;65.87;31.87;;;;;;;3.20;63.37;100828.88;5144282;27;20035;-79
2022/02/14 06:03:51;;;;;;;73.60;32.10;;;;;;;3.30;63.96;100855.38;5124420;27;20034;-79
2022/02/14 06:06:16;;;;;;;73.23;34.03;;;;;;;3.23;63.32;100834.88;5125379;27;20317;-79
2022/02/14 06:08:42;;;;;;;75.90;34.23;;;;;;;3.25;63.84;100841.72;5124073;27;20028;-79
2022/02/14 06:11:07;;;;;;;76.27;34.87;;;;;;;3.44;64.16;100859.81;5124149;28;20132;-79
2022/02/14 06:13:33;;;;;;;91.90;37.60;;;;;;;3.48;64.67;100861.31;5124321;27;20076;-78
2022/02/14 06:15:58;;;;;;;75.73;34.33;;;;;;;3.52;64.09;100858.44;5136606;27;20023;-77
2022/02/14 06:18:24;;;;;;;71.43;31.20;;;;;;;3.54;64.50;100866.19;5140743;27;20075;-79
2022/02/14 06:20:51;;;;;;;77.50;33.77;;;;;;;3.55;64.31;100865.25;5143053;27;20243;-79
2022/02/14 06:23:16;;;;;;;83.93;36.40;;;;;;;3.45;64.38;100857.09;5140140;27;20065;-78
2022/02/14 06:25:42;;;;;;;92.50;39.60;;;;;;;3.33;64.33;100828.19;5141822;27;20465;-79
2022/02/14 06:28:07;;;;;;;92.77;42.47;;;;;;;3.65;63.63;100844.59;5139659;27;20040;-79
2022/02/14 06:30:33;;;;;;;91.03;40.40;;;;;;;3.73;63.57;100858.94;5141288;27;20035;-78
2022/02/14 06:32:58;;;;;;;95.97;40.93;;;;;;;3.89;63.37;100864.09;5141496;27;20039;-78
2022/02/14 06:35:24;;;;;;;93.87;41.03;;;;;;;4.21;62.82;100861.31;5140788;27;20221;-79
2022/02/14 06:37:49;;;;;;;97.67;43.47;;;;;;;4.44;61.65;100861.59;5142250;27;20043;-75
2022/02/14 06:40:15;;;;;;;104.50;45.90;;;;;;;4.28;62.31;100853.00;5139836;27;20035;-76
2022/02/14 06:42:43;;;;;;;105.17;44.87;;;;;;;4.35;62.37;100866.56;5141910;27;20108;-76
2022/02/14 06:45:09;;;;;;;97.67;43.40;;;;;;;4.19;62.91;100861.44;5139844;27;20015;-76
2022/02/14 06:47:34;;;;;;;103.57;46.37;;;;;;;3.72;65.50;100869.50;5140161;27;20031;-78
2022/02/14 06:50:00;;;;;;;107.37;49.10;;;;;;;3.44;66.98;100863.28;5133831;27;20243;-78
2022/02/14 06:52:25;;;;;;;102.97;47.93;;;;;;;3.24;66.83;100842.63;5135502;27;20148;-76
2022/02/14 06:54:50;;;;;;;95.03;43.30;;;;;;;3.44;67.54;100859.81;5134661;27;20035;-78
2022/02/14 06:57:16;;;;;;;89.00;41.77;;;;;;;3.33;67.52;100844.72;5134793;27;20091;-78
2022/02/14 06:59:41;;;;;;;87.50;40.60;;;;;;;3.58;66.96;100867.69;5136259;27;20102;-79
2022/02/14 07:02:07;;;;;;;81.73;36.30;;;;;;;3.65;66.44;100858.53;5135362;27;20043;-78
2022/02/14 07:04:33;;;;;;;73.87;32.70;;;;;;;3.70;66.07;100834.69;5141025;27;20309;-79
2022/02/14 07:06:58;;;;;;;75.30;33.20;;;;;;;3.95;65.79;100858.50;5140860;27;20039;-78
2022/02/14 07:09:23;;;;;;;64.97;32.33;;;;;;;4.02;65.47;100859.81;5139609;27;20050;-78
2022/02/14 07:11:49;;;;;;;70.43;32.53;;;;;;;4.07;65.87;100862.16;5142082;27;20094;-79
2022/02/14 07:14:16;;;;;;;63.80;32.30;;;;;;;4.37;64.63;100834.06;5139813;27;20027;-78
2022/02/14 07:16:43;;;;;;;68.27;31.93;;;;;;;4.82;63.47;100835.53;5141559;27;20026;-77
2022/02/14 07:19:11;;;;;;;60.97;30.70;;;;;;;5.19;62.34;100848.91;5140833;27;20313;-77
2022/02/14 07:21:37;;;;;;;62.73;30.63;;;;;;;5.27;60.92;100830.88;5141159;27;20027;-77
2022/02/14 07:24:03;;;;;;;57.87;30.83;;;;;;;5.61;59.90;100833.88;5139815;28;20384;-78
2022/02/14 07:26:28;;;;;;;61.10;31.43;;;;;;;5.99;60.27;100855.78;5139467;28;20032;-78
2022/02/14 07:28:54;;;;;;;63.45;31.20;;;;;;;6.07;59.37;100836.84;5141101;27;20034;-77
2022/02/14 07:31:19;;;;;;;57.90;29.73;;;;;;;6.39;58.90;100826.75;5139789;28;20043;-77
2022/02/14 07:33:45;;;;;;;66.32;31.13;;;;;;;6.76;57.90;100839.88;5141191;27;20027;-77
2022/02/14 07:36:10;;;;;;;57.28;30.63;;;;;;;7.03;57.03;100846.63;5139083;27;20089;-79
2022/02/14 07:38:36;;;;;;;71.45;31.30;;;;;;;7.47;54.95;100857.47;5143324;27;20039;-79
2022/02/14 07:41:01;;;;;;;68.57;31.17;;;;;;;7.63;54.76;100848.28;5139896;28;20206;-77
2022/02/14 07:43:29;;;;;;;64.78;33.53;;;;;;;7.62;54.30;100843.13;5139614;28;20050;-80
2022/02/14 07:45:55;;;;;;;64.80;32.30;;;;;;;7.99;53.06;100852.56;5139848;27;20213;-78
2022/02/14 07:48:20;;;;;;;65.07;33.47;;;;;;;8.24;51.22;100843.56;5140256;27;20043;-79
2022/02/14 07:50:46;;;;;;;65.05;32.05;;;;;;;8.35;50.96;100844.59;5141337;27;20027;-78
2022/02/14 07:53:11;;;;;;;70.00;34.03;;;;;;;8.37;51.02;100842.66;5137186;28;20019;-79
2022/02/14 07:55:38;;;;;;;72.93;33.13;;;;;;;8.23;51.36;100836.59;5137797;28;20015;-79
2022/02/14 07:58:03;;;;;;;69.70;34.72;;;;;;;8.00;52.02;100804.13;5138464;28;20039;-78
2022/02/14 08:00:29;;;;;;;73.75;34.83;;;;;;;8.35;51.88;100841.94;5139939;27;20381;-79
2022/02/14 08:02:54;;;;;;;67.35;33.88;;;;;;;8.51;51.67;100837.97;5138732;28;20027;-80
2022/02/14 08:05:20;;;;;;;63.15;32.85;;;;;;;8.69;50.86;100826.91;5141744;27;20309;-77
2022/02/14 08:07:46;;;;;;;73.55;33.97;;;;;;;8.87;50.58;100825.41;5139161;28;20027;-79
2022/02/14 08:10:11;;;;;;;76.65;30.88;;;;;;;9.09;49.62;100822.69;5139638;28;20072;-79
2022/02/14 08:12:37;;;;;;;62.85;32.15;;;;;;;9.11;49.22;100828.69;5139115;27;20027;-79
2022/02/14 08:15:06;;;;;;;65.57;32.35;;;;;;;9.23;48.93;100824.19;5143139;27;20067;-79
2022/02/14 08:17:33;;;;;;;66.00;32.88;;;;;;;8.98;49.77;100824.53;5142129;27;20027;-79
2022/02/14 08:20:00;;;;;;;58.53;28.65;;;;;;;9.32;49.87;100822.59;5142813;27;20213;-78
2022/02/14 08:22:26;;;;;;;54.70;26.15;;;;;;;9.35;49.66;100828.44;5144449;27;20019;-79
2022/02/14 08:24:53;;;;;;;40.30;21.08;;;;;;;9.37;49.11;100809.84;5141821;27;20340;-79
2022/02/14 08:27:19;;;;;;;42.22;20.15;;;;;;;9.60;48.88;100820.16;5144697;27;20295;-81
2022/02/14 08:29:45;;;;;;;49.67;21.52;;;;;;;9.22;50.04;100820.72;5143346;27;20239;-80
2022/02/14 08:32:14;;;;;;;51.90;24.30;;;;;;;9.61;49.39;100815.72;5142692;27;20047;-79
2022/02/14 08:34:41;;;;;;;49.45;26.42;;;;;;;9.69;49.19;100807.97;5142991;27;20029;-79
2022/02/14 08:37:08;;;;;;;86.38;25.70;;;;;;;9.70;49.39;100814.09;5141733;27;20027;-79
2022/02/14 08:39:33;;;;;;;53.30;25.90;;;;;;;9.57;49.07;100806.38;5142214;27;20055;-79
2022/02/14 08:41:59;;;;;;;59.25;27.13;;;;;;;9.73;49.14;100813.84;5142710;27;20031;-79
2022/02/14 08:44:24;;;;;;;54.90;24.50;;;;;;;9.72;48.96;100799.78;5144391;27;20046;-79
2022/02/14 08:46:50;;;;;;;44.25;23.67;;;;;;;9.40;50.08;100809.59;5143321;27;20099;-79
2022/02/14 08:49:15;;;;;;;44.13;22.25;;;;;;;8.92;50.88;100808.22;5137130;27;20031;-79
2022/02/14 08:51:41;;;;;;;45.15;21.40;;;;;;;9.01;51.41;100803.16;5136482;27;20045;-80
2022/02/14 08:54:06;;;;;;;44.33;22.10;;;;;;;9.24;51.60;100800.28;5137660;27;20019;-79
2022/02/14 08:56:32;;;;;;;40.67;20.42;;;;;;;9.53;50.98;100800.50;5136284;27;20083;-79
2022/02/14 08:58:57;;;;;;;43.63;22.02;;;;;;;9.73;49.59;100806.75;5137375;27;20035;-79
2022/02/14 09:01:23;;;;;;;42.05;22.30;;;;;;;9.44;51.16;100803.94;5135747;27;20027;-79
2022/02/14 09:03:50;;;;;;;47.10;21.90;;;;;;;9.52;50.52;100805.94;5136606;27;20037;-79
2022/02/14 09:06:15;;;;;;;45.47;21.23;;;;;;;9.62;50.84;100801.53;5135419;27;20058;-79
2022/02/14 09:08:41;;;;;;;37.63;19.98;;;;;;;9.56;50.32;100805.53;5134767;27;20049;-79
2022/02/14 09:11:07;;;;;;;46.17;21.60;;;;;;;9.28;50.97;100806.97;5135745;27;20035;-79
2022/02/14 09:13:33;;;;;;;43.72;21.45;;;;;;;9.22;51.93;100798.72;5136334;27;20217;-79
2022/02/14 09:16:04;;;;;;;42.28;22.35;;;;;;;9.54;50.68;100794.25;5136172;27;20027;-79
2022/02/14 09:18:31;;;;;;;47.17;21.00;;;;;;;9.57;49.93;100775.47;5134914;27;20235;-80
2022/02/14 09:20:56;;;;;;;45.28;21.92;;;;;;;9.92;50.00;100798.06;5136995;27;20043;-79
2022/02/14 09:23:22;;;;;;;47.88;23.08;;;;;;;9.43;50.85;100804.88;5134830;27;20278;-79
2022/02/14 09:25:48;;;;;;;40.47;20.92;;;;;;;9.58;51.49;100803.59;5135861;27;20031;-79
2022/02/14 09:28:13;;;;;;;39.13;20.35;;;;;;;9.58;50.87;100806.25;5138056;27;20041;-79
2022/02/14 09:30:39;;;;;;;39.10;20.52;;;;;;;9.91;49.39;100796.41;5134272;27;20039;-79
2022/02/14 09:33:05;;;;;;;42.03;19.52;;;;;;;9.73;48.88;100787.41;5136896;27;20325;-79
2022/02/14 09:35:30;;;;;;;38.38;17.65;;;;;;;9.43;50.03;100799.59;5136589;27;20042;-77
2022/02/14 09:37:58;;;;;;;41.88;22.65;;;;;;;9.85;50.05;100792.47;5135240;27;20037;-77
2022/02/14 09:40:25;;;;;;;40.15;19.67;;;;;;;10.05;48.47;100781.97;5151944;27;20340;-77
2022/02/14 09:42:53;;;;;;;41.35;22.17;;;;;;;10.24;48.34;100782.91;5136570;27;20055;-77
2022/02/14 09:45:19;;;;;;;38.75;19.90;;;;;;;10.31;47.39;100785.84;5135699;27;20035;-77
2022/02/14 09:47:45;;;;;;;33.58;18.38;;;;;;;10.22;47.25;100758.38;5134167;27;20047;-78
2022/02/14 09:50:11;;;;;;;36.40;19.52;;;;;;;10.28;47.38;100780.84;5135523;27;20354;-79
2022/02/14 09:52:36;;;;;;;41.50;17.80;;;;;;;10.28;47.78;100778.19;5134396;27;20023;-79
2022/02/14 09:55:04;;;;;;;34.72;16.52;;;;;;;9.65;48.72;100777.47;5137653;27;20031;-79
2022/02/14 09:57:29;;;;;;;33.15;17.20;;;;;;;9.67;48.90;100780.81;5134513;27;20224;-79
2022/02/14 09:59:55;;;;;;;31.35;15.23;;;;;;;9.79;48.70;100773.66;5135478;27;20029;-77
2022/02/14 10:02:24;;;;;;;25.70;14.15;;;;;;;9.63;48.79;100768.00;5135754;27;20202;-78
2022/02/14 10:05:03;;;;;;;42.97;16.65;;;;;;;9.86;47.93;100764.22;5134825;27;20154;-78
2022/02/14 10:07:44;;;;;;;36.40;14.55;;;;;;;9.91;48.40;100762.00;5134240;27;20092;-77
2022/02/14 10:10:10;;;;;;;27.25;14.05;;;;;;;9.54;48.69;100759.88;5136088;27;20096;-78
2022/02/14 10:12:41;;;;;;;27.63;13.68;;;;;;;9.64;47.76;100749.34;5134413;27;20310;-78
2022/02/14 10:15:07;;;;;;;22.65;13.63;;;;;;;9.85;48.39;100749.31;5134761;27;20041;-79
2022/02/14 10:17:59;;;;;;;31.80;14.63;;;;;;;9.95;49.66;100744.88;5136505;27;20047;-79
2022/02/14 10:20:26;;;;;;;29.25;15.30;;;;;;;9.72;49.06;100732.81;5132685;27;20072;-79
2022/02/14 10:22:54;;;;;;;26.92;14.68;;;;;;;9.80;48.61;100733.00;5134862;27;20040;-79
2022/02/14 10:25:29;;;;;;;26.23;13.70;;;;;;;9.33;50.74;100729.13;5134363;27;20041;-79
2022/02/14 10:28:12;;;;;;;27.27;15.85;;;;;;;9.26;50.95;100732.28;5132803;27;20332;-79
2022/02/14 10:31:08;;;;;;;30.27;14.32;;;;;;;9.25;50.65;100717.38;5132650;27;20043;-79
2022/02/14 10:33:49;;;;;;;28.10;14.38;;;;;;;9.42;50.00;100723.06;5135295;27;20070;-79
2022/02/14 10:36:27;;;;;;;29.40;14.52;;;;;;;9.07;50.44;100712.81;5134509;27;20324;-80
2022/02/14 10:38:54;;;;;;;25.48;13.65;;;;;;;8.98;51.13;100711.78;5135985;27;20046;-79
2022/02/14 10:41:20;;;;;;;34.97;16.10;;;;;;;9.25;50.68;100704.16;5132771;27;20229;-79
2022/02/14 10:43:46;;;;;;;25.75;13.85;;;;;;;9.46;50.31;100698.06;5135619;27;20101;-78
2022/02/14 10:46:22;;;;;;;28.13;14.63;;;;;;;9.56;50.06;100693.66;5136224;27;20145;-79
2022/02/14 10:48:55;;;;;;;35.42;14.10;;;;;;;9.71;49.13;100688.84;5134101;27;20037;-79
2022/02/14 10:51:20;;;;;;;26.42;13.95;;;;;;;9.81;49.04;100689.72;5132773;27;20213;-79
2022/02/14 10:53:51;;;;;;;27.67;14.05;;;;;;;9.77;49.19;100680.38;5133878;27;20078;-79
2022/02/14 10:56:18;;;;;;;33.40;16.65;;;;;;;9.79;49.14;100681.06;5136203;27;20282;-79
2022/02/14 10:58:46;;;;;;;28.75;15.90;;;;;;;9.95;48.81;100680.56;5134117;27;20042;-77
2022/02/14 11:01:12;;;;;;;33.13;17.15;;;;;;;9.74;49.33;100668.25;5133166;27;20034;-77
2022/02/14 11:03:39;;;;;;;28.92;14.60;;;;;;;9.82;49.00;100665.75;5135286;27;20039;-77
2022/02/14 11:06:05;;;;;;;29.77;16.23;;;;;;;9.89;48.74;100658.13;5133158;27;20098;-78
2022/02/14 11:08:37;;;;;;;30.08;15.88;;;;;;;9.87;49.80;100655.63;5133436;27;20019;-77
2022/02/14 11:11:07;;;;;;;31.05;15.75;;;;;;;9.69;49.68;100651.94;5135867;27;20027;-77
2022/02/14 11:13:34;;;;;;;29.90;15.77;;;;;;;9.81;48.83;100653.50;5135220;27;20042;-77
2022/02/14 11:16:01;;;;;;;30.33;17.30;;;;;;;10.20;48.74;100645.69;5134032;27;20031;-76